sensor_id;sensor_type;location;lat;lon;timestamp;P1;durP1;ratioP1;P2;durP2;ratioP2
57311;SDS011;43154;50.966;18.316;2023-05-17T00:00:48;40.00;;;19.90;;
57311;SDS011;43154;50.966;18.316;2023-05-17T00:03:15;37.40;;;19.70;;
57311;SDS011;43154;50.966;18.316;2023-05-17T00:05:44;40.20;;;19.50;;
57311;SDS011;43154;50.966;18.316;2023-05-17T00:08:12;40.80;;;20.60;;
57311;SDS011;43154;50.966;18.316;2023-05-17T00:10:38;36.60;;;19.10;;
57311;SDS011;43154;50.966;18.316;2023-05-17T00:13:04;39.10;;;19.80;;
57311;SDS011;43154;50.966;18.316;2023-05-17T00:15:30;37.60;;;18.80;;
57311;SDS011;43154;50.966;18.316;2023-05-17T00:17:56;37.20;;;19.50;;
57311;SDS011;43154;50.966;18.316;2023-05-17T00:20:25;38.90;;;19.10;;
57311;SDS011;43154;50.966;18.316;2023-05-17T00:22:51;38.50;;;18.40;;
57311;SDS011;43154;50.966;18.316;2023-05-17T00:25:17;34.10;;;18.10;;
57311;SDS011;43154;50.966;18.316;2023-05-17T00:27:47;35.70;;;18.40;;
57311;SDS011;43154;50.966;18.316;2023-05-17T00:30:18;35.80;;;18.90;;
57311;SDS011;43154;50.966;18.316;2023-05-17T00:32:45;35.70;;;18.50;;
57311;SDS011;43154;50.966;18.316;2023-05-17T00:35:12;39.30;;;19.80;;
57311;SDS011;43154;50.966;18.316;2023-05-17T00:37:37;39.30;;;19.40;;
57311;SDS011;43154;50.966;18.316;2023-05-17T00:40:04;40.00;;;19.30;;
57311;SDS011;43154;50.966;18.316;2023-05-17T00:46:12;40.60;;;19.70;;
57311;SDS011;43154;50.966;18.316;2023-05-17T00:48:38;34.90;;;17.60;;
57311;SDS011;43154;50.966;18.316;2023-05-17T00:51:04;35.40;;;17.80;;
57311;SDS011;43154;50.966;18.316;2023-05-17T00:53:34;36.50;;;17.60;;
57311;SDS011;43154;50.966;18.316;2023-05-17T00:56:01;38.00;;;18.60;;
57311;SDS011;43154;50.966;18.316;2023-05-17T00:58:33;43.60;;;20.70;;
57311;SDS011;43154;50.966;18.316;2023-05-17T01:01:03;44.50;;;20.50;;
57311;SDS011;43154;50.966;18.316;2023-05-17T01:03:31;41.60;;;21.10;;
57311;SDS011;43154;50.966;18.316;2023-05-17T01:05:57;39.70;;;19.90;;
57311;SDS011;43154;50.966;18.316;2023-05-17T01:08:26;39.80;;;19.70;;
57311;SDS011;43154;50.966;18.316;2023-05-17T01:10:56;39.30;;;19.80;;
57311;SDS011;43154;50.966;18.316;2023-05-17T01:13:40;38.40;;;20.10;;
57311;SDS011;43154;50.966;18.316;2023-05-17T01:16:21;36.50;;;18.20;;
57311;SDS011;43154;50.966;18.316;2023-05-17T01:25:06;34.90;;;17.70;;
57311;SDS011;43154;50.966;18.316;2023-05-17T01:27:55;38.40;;;18.60;;
57311;SDS011;43154;50.966;18.316;2023-05-17T01:30:29;38.10;;;18.40;;
57311;SDS011;43154;50.966;18.316;2023-05-17T01:32:57;36.50;;;18.40;;
57311;SDS011;43154;50.966;18.316;2023-05-17T01:35:39;39.90;;;19.40;;
57311;SDS011;43154;50.966;18.316;2023-05-17T01:45:31;32.90;;;16.40;;
57311;SDS011;43154;50.966;18.316;2023-05-17T01:50:43;31.80;;;15.50;;
57311;SDS011;43154;50.966;18.316;2023-05-17T01:53:26;33.50;;;15.60;;
57311;SDS011;43154;50.966;18.316;2023-05-17T01:56:06;33.00;;;16.20;;
57311;SDS011;43154;50.966;18.316;2023-05-17T01:58:44;32.50;;;15.10;;
57311;SDS011;43154;50.966;18.316;2023-05-17T02:01:17;32.00;;;16.40;;
57311;SDS011;43154;50.966;18.316;2023-05-17T02:03:46;32.50;;;16.00;;
57311;SDS011;43154;50.966;18.316;2023-05-17T02:06:16;30.00;;;15.70;;
57311;SDS011;43154;50.966;18.316;2023-05-17T02:08:45;33.50;;;16.50;;
57311;SDS011;43154;50.966;18.316;2023-05-17T02:11:22;31.80;;;16.90;;
57311;SDS011;43154;50.966;18.316;2023-05-17T02:13:47;36.30;;;16.70;;
57311;SDS011;43154;50.966;18.316;2023-05-17T02:19:48;33.70;;;17.70;;
57311;SDS011;43154;50.966;18.316;2023-05-17T02:22:14;33.40;;;17.80;;
57311;SDS011;43154;50.966;18.316;2023-05-17T02:24:43;31.90;;;16.60;;
57311;SDS011;43154;50.966;18.316;2023-05-17T02:27:11;28.70;;;16.10;;
57311;SDS011;43154;50.966;18.316;2023-05-17T02:29:43;32.60;;;16.90;;
57311;SDS011;43154;50.966;18.316;2023-05-17T02:32:14;28.70;;;14.80;;
57311;SDS011;43154;50.966;18.316;2023-05-17T02:34:46;32.30;;;16.50;;
57311;SDS011;43154;50.966;18.316;2023-05-17T02:37:15;35.00;;;17.30;;
57311;SDS011;43154;50.966;18.316;2023-05-17T02:39:50;29.90;;;16.80;;
57311;SDS011;43154;50.966;18.316;2023-05-17T02:42:19;34.60;;;16.80;;
57311;SDS011;43154;50.966;18.316;2023-05-17T02:44:49;31.10;;;17.20;;
57311;SDS011;43154;50.966;18.316;2023-05-17T02:47:21;35.00;;;18.50;;
57311;SDS011;43154;50.966;18.316;2023-05-17T02:49:49;37.30;;;20.00;;
57311;SDS011;43154;50.966;18.316;2023-05-17T02:52:20;40.00;;;19.00;;
57311;SDS011;43154;50.966;18.316;2023-05-17T02:54:46;34.70;;;18.90;;
57311;SDS011;43154;50.966;18.316;2023-05-17T02:57:12;36.10;;;19.10;;
57311;SDS011;43154;50.966;18.316;2023-05-17T02:59:38;39.90;;;18.70;;
57311;SDS011;43154;50.966;18.316;2023-05-17T03:02:07;36.80;;;19.20;;
57311;SDS011;43154;50.966;18.316;2023-05-17T03:04:33;33.40;;;17.90;;
57311;SDS011;43154;50.966;18.316;2023-05-17T03:07:03;33.80;;;17.50;;
57311;SDS011;43154;50.966;18.316;2023-05-17T03:09:29;36.90;;;19.10;;
57311;SDS011;43154;50.966;18.316;2023-05-17T03:11:55;38.50;;;19.30;;
57311;SDS011;43154;50.966;18.316;2023-05-17T03:14:21;35.90;;;18.70;;
57311;SDS011;43154;50.966;18.316;2023-05-17T03:16:47;41.10;;;18.60;;
57311;SDS011;43154;50.966;18.316;2023-05-17T03:19:15;35.80;;;18.30;;
57311;SDS011;43154;50.966;18.316;2023-05-17T03:21:42;36.40;;;17.50;;
57311;SDS011;43154;50.966;18.316;2023-05-17T03:24:08;35.20;;;17.90;;
57311;SDS011;43154;50.966;18.316;2023-05-17T03:26:39;35.30;;;16.90;;
57311;SDS011;43154;50.966;18.316;2023-05-17T03:29:05;34.70;;;18.00;;
57311;SDS011;43154;50.966;18.316;2023-05-17T03:31:31;35.90;;;18.40;;
57311;SDS011;43154;50.966;18.316;2023-05-17T03:33:57;33.50;;;16.20;;
57311;SDS011;43154;50.966;18.316;2023-05-17T03:36:23;33.20;;;17.50;;
57311;SDS011;43154;50.966;18.316;2023-05-17T03:38:49;33.40;;;16.30;;
57311;SDS011;43154;50.966;18.316;2023-05-17T03:41:15;33.00;;;16.50;;
57311;SDS011;43154;50.966;18.316;2023-05-17T03:43:44;34.90;;;16.60;;
57311;SDS011;43154;50.966;18.316;2023-05-17T03:46:10;35.20;;;17.60;;
57311;SDS011;43154;50.966;18.316;2023-05-17T03:48:38;37.00;;;17.90;;
57311;SDS011;43154;50.966;18.316;2023-05-17T03:51:07;41.40;;;18.00;;
57311;SDS011;43154;50.966;18.316;2023-05-17T03:53:34;38.90;;;18.50;;
57311;SDS011;43154;50.966;18.316;2023-05-17T03:56:05;35.20;;;17.90;;
57311;SDS011;43154;50.966;18.316;2023-05-17T03:58:34;36.50;;;17.70;;
57311;SDS011;43154;50.966;18.316;2023-05-17T04:01:00;36.40;;;17.70;;
57311;SDS011;43154;50.966;18.316;2023-05-17T04:03:29;32.90;;;16.80;;
57311;SDS011;43154;50.966;18.316;2023-05-17T04:06:04;33.30;;;16.90;;
57311;SDS011;43154;50.966;18.316;2023-05-17T04:08:34;32.40;;;16.70;;
57311;SDS011;43154;50.966;18.316;2023-05-17T04:11:09;38.20;;;18.10;;
57311;SDS011;43154;50.966;18.316;2023-05-17T04:13:38;39.80;;;18.20;;
57311;SDS011;43154;50.966;18.316;2023-05-17T04:16:08;36.70;;;18.40;;
57311;SDS011;43154;50.966;18.316;2023-05-17T04:18:35;37.10;;;18.20;;
57311;SDS011;43154;50.966;18.316;2023-05-17T04:21:02;35.50;;;18.50;;
57311;SDS011;43154;50.966;18.316;2023-05-17T04:23:34;36.20;;;18.10;;
57311;SDS011;43154;50.966;18.316;2023-05-17T04:26:03;36.20;;;18.30;;
57311;SDS011;43154;50.966;18.316;2023-05-17T04:28:30;37.50;;;17.90;;
57311;SDS011;43154;50.966;18.316;2023-05-17T04:30:59;36.80;;;17.50;;
57311;SDS011;43154;50.966;18.316;2023-05-17T04:33:28;35.80;;;18.00;;
57311;SDS011;43154;50.966;18.316;2023-05-17T04:35:57;36.50;;;18.60;;
57311;SDS011;43154;50.966;18.316;2023-05-17T04:38:23;42.00;;;17.40;;
57311;SDS011;43154;50.966;18.316;2023-05-17T04:40:49;37.60;;;18.30;;
57311;SDS011;43154;50.966;18.316;2023-05-17T04:43:16;40.60;;;18.90;;
57311;SDS011;43154;50.966;18.316;2023-05-17T04:45:42;38.00;;;18.80;;
57311;SDS011;43154;50.966;18.316;2023-05-17T04:48:11;46.40;;;19.60;;
57311;SDS011;43154;50.966;18.316;2023-05-17T04:50:43;40.40;;;19.40;;
57311;SDS011;43154;50.966;18.316;2023-05-17T04:53:11;42.10;;;18.70;;
57311;SDS011;43154;50.966;18.316;2023-05-17T04:55:37;40.70;;;18.90;;
57311;SDS011;43154;50.966;18.316;2023-05-17T04:58:03;39.60;;;18.70;;
57311;SDS011;43154;50.966;18.316;2023-05-17T05:00:32;38.10;;;18.10;;
57311;SDS011;43154;50.966;18.316;2023-05-17T05:02:59;37.70;;;18.20;;
57311;SDS011;43154;50.966;18.316;2023-05-17T05:05:25;36.30;;;17.40;;
57311;SDS011;43154;50.966;18.316;2023-05-17T05:07:53;36.00;;;17.50;;
57311;SDS011;43154;50.966;18.316;2023-05-17T05:10:22;33.40;;;16.60;;
57311;SDS011;43154;50.966;18.316;2023-05-17T05:12:53;40.30;;;17.40;;
57311;SDS011;43154;50.966;18.316;2023-05-17T05:15:25;38.30;;;17.90;;
57311;SDS011;43154;50.966;18.316;2023-05-17T05:17:53;39.30;;;16.70;;
57311;SDS011;43154;50.966;18.316;2023-05-17T05:20:22;36.20;;;16.50;;
57311;SDS011;43154;50.966;18.316;2023-05-17T05:22:53;33.20;;;16.30;;
57311;SDS011;43154;50.966;18.316;2023-05-17T05:25:25;38.80;;;16.20;;
57311;SDS011;43154;50.966;18.316;2023-05-17T05:27:54;35.60;;;16.40;;
57311;SDS011;43154;50.966;18.316;2023-05-17T05:30:23;33.70;;;16.60;;
57311;SDS011;43154;50.966;18.316;2023-05-17T05:32:51;43.50;;;16.90;;
57311;SDS011;43154;50.966;18.316;2023-05-17T05:35:20;37.20;;;17.00;;
57311;SDS011;43154;50.966;18.316;2023-05-17T05:37:53;34.20;;;15.90;;
57311;SDS011;43154;50.966;18.316;2023-05-17T05:40:20;37.90;;;16.10;;
57311;SDS011;43154;50.966;18.316;2023-05-17T05:42:49;35.00;;;16.00;;
57311;SDS011;43154;50.966;18.316;2023-05-17T05:45:15;38.80;;;17.50;;
57311;SDS011;43154;50.966;18.316;2023-05-17T05:47:53;42.50;;;18.70;;
57311;SDS011;43154;50.966;18.316;2023-05-17T05:50:22;37.50;;;17.20;;
57311;SDS011;43154;50.966;18.316;2023-05-17T05:52:48;37.30;;;16.80;;
57311;SDS011;43154;50.966;18.316;2023-05-17T05:55:25;38.90;;;18.40;;
57311;SDS011;43154;50.966;18.316;2023-05-17T05:57:53;35.60;;;18.00;;
57311;SDS011;43154;50.966;18.316;2023-05-17T06:00:20;37.80;;;17.50;;
57311;SDS011;43154;50.966;18.316;2023-05-17T06:02:46;37.40;;;19.10;;
57311;SDS011;43154;50.966;18.316;2023-05-17T06:05:15;39.60;;;19.20;;
57311;SDS011;43154;50.966;18.316;2023-05-17T06:07:41;38.40;;;19.20;;
57311;SDS011;43154;50.966;18.316;2023-05-17T06:10:15;40.10;;;20.30;;
57311;SDS011;43154;50.966;18.316;2023-05-17T06:12:46;38.60;;;19.90;;
57311;SDS011;43154;50.966;18.316;2023-05-17T06:15:15;45.10;;;20.80;;
57311;SDS011;43154;50.966;18.316;2023-05-17T06:17:41;39.10;;;19.80;;
57311;SDS011;43154;50.966;18.316;2023-05-17T06:20:07;42.60;;;21.10;;
57311;SDS011;43154;50.966;18.316;2023-05-17T06:22:34;43.70;;;21.70;;
57311;SDS011;43154;50.966;18.316;2023-05-17T06:25:03;41.60;;;20.60;;
57311;SDS011;43154;50.966;18.316;2023-05-17T06:27:30;41.40;;;20.80;;
57311;SDS011;43154;50.966;18.316;2023-05-17T06:30:06;43.00;;;21.40;;
57311;SDS011;43154;50.966;18.316;2023-05-17T06:32:35;38.90;;;20.60;;
57311;SDS011;43154;50.966;18.316;2023-05-17T06:35:07;42.30;;;21.70;;
57311;SDS011;43154;50.966;18.316;2023-05-17T06:37:34;38.80;;;20.80;;
57311;SDS011;43154;50.966;18.316;2023-05-17T06:40:01;38.40;;;19.10;;
57311;SDS011;43154;50.966;18.316;2023-05-17T06:42:54;36.40;;;18.80;;
57311;SDS011;43154;50.966;18.316;2023-05-17T06:45:20;33.10;;;19.00;;
57311;SDS011;43154;50.966;18.316;2023-05-17T06:47:54;38.40;;;20.40;;
57311;SDS011;43154;50.966;18.316;2023-05-17T06:50:25;36.80;;;19.60;;
57311;SDS011;43154;50.966;18.316;2023-05-17T06:52:52;37.40;;;19.00;;
57311;SDS011;43154;50.966;18.316;2023-05-17T06:55:22;34.20;;;17.30;;
57311;SDS011;43154;50.966;18.316;2023-05-17T06:57:47;33.80;;;16.20;;
57311;SDS011;43154;50.966;18.316;2023-05-17T07:00:13;32.60;;;15.80;;
57311;SDS011;43154;50.966;18.316;2023-05-17T07:02:40;31.60;;;14.50;;
57311;SDS011;43154;50.966;18.316;2023-05-17T07:05:08;30.50;;;14.40;;
57311;SDS011;43154;50.966;18.316;2023-05-17T07:07:34;30.80;;;13.30;;
57311;SDS011;43154;50.966;18.316;2023-05-17T07:10:04;23.90;;;10.30;;
57311;SDS011;43154;50.966;18.316;2023-05-17T07:12:34;20.30;;;8.80;;
57311;SDS011;43154;50.966;18.316;2023-05-17T07:15:00;22.20;;;9.00;;
57311;SDS011;43154;50.966;18.316;2023-05-17T07:17:27;24.50;;;9.80;;
57311;SDS011;43154;50.966;18.316;2023-05-17T07:19:53;23.70;;;9.90;;
57311;SDS011;43154;50.966;18.316;2023-05-17T07:22:19;21.30;;;9.50;;
57311;SDS011;43154;50.966;18.316;2023-05-17T07:24:46;23.50;;;10.00;;
57311;SDS011;43154;50.966;18.316;2023-05-17T07:27:16;24.10;;;10.40;;
57311;SDS011;43154;50.966;18.316;2023-05-17T07:29:59;25.90;;;9.80;;
57311;SDS011;43154;50.966;18.316;2023-05-17T07:32:28;23.30;;;9.80;;
57311;SDS011;43154;50.966;18.316;2023-05-17T07:35:06;24.20;;;9.70;;
57311;SDS011;43154;50.966;18.316;2023-05-17T07:37:38;23.70;;;9.70;;
57311;SDS011;43154;50.966;18.316;2023-05-17T07:40:14;23.10;;;9.90;;
57311;SDS011;43154;50.966;18.316;2023-05-17T07:42:49;23.50;;;10.00;;
57311;SDS011;43154;50.966;18.316;2023-05-17T07:45:25;27.50;;;13.10;;
57311;SDS011;43154;50.966;18.316;2023-05-17T07:48:00;24.90;;;9.70;;
57311;SDS011;43154;50.966;18.316;2023-05-17T07:50:42;30.70;;;11.90;;
57311;SDS011;43154;50.966;18.316;2023-05-17T07:53:18;31.00;;;12.80;;
57311;SDS011;43154;50.966;18.316;2023-05-17T07:55:52;21.70;;;9.40;;
57311;SDS011;43154;50.966;18.316;2023-05-17T07:58:30;25.90;;;12.40;;
57311;SDS011;43154;50.966;18.316;2023-05-17T08:01:01;20.50;;;9.90;;
57311;SDS011;43154;50.966;18.316;2023-05-17T08:03:35;22.90;;;8.20;;
57311;SDS011;43154;50.966;18.316;2023-05-17T08:06:07;18.20;;;7.70;;
57311;SDS011;43154;50.966;18.316;2023-05-17T08:08:36;22.70;;;7.90;;
57311;SDS011;43154;50.966;18.316;2023-05-17T08:11:42;19.10;;;7.10;;
57311;SDS011;43154;50.966;18.316;2023-05-17T08:14:25;19.20;;;7.40;;
57311;SDS011;43154;50.966;18.316;2023-05-17T08:16:56;23.30;;;8.50;;
57311;SDS011;43154;50.966;18.316;2023-05-17T08:19:30;20.40;;;7.30;;
57311;SDS011;43154;50.966;18.316;2023-05-17T08:22:12;18.80;;;7.40;;
57311;SDS011;43154;50.966;18.316;2023-05-17T08:24:54;16.70;;;6.90;;
57311;SDS011;43154;50.966;18.316;2023-05-17T08:27:29;20.00;;;7.70;;
57311;SDS011;43154;50.966;18.316;2023-05-17T08:30:16;19.50;;;7.00;;
57311;SDS011;43154;50.966;18.316;2023-05-17T08:32:50;18.20;;;7.50;;
57311;SDS011;43154;50.966;18.316;2023-05-17T08:35:27;16.20;;;6.30;;
57311;SDS011;43154;50.966;18.316;2023-05-17T08:38:03;17.50;;;6.40;;
57311;SDS011;43154;50.966;18.316;2023-05-17T08:44:03;16.80;;;6.20;;
57311;SDS011;43154;50.966;18.316;2023-05-17T08:46:44;16.70;;;5.90;;
57311;SDS011;43154;50.966;18.316;2023-05-17T08:49:43;15.70;;;6.10;;
57311;SDS011;43154;50.966;18.316;2023-05-17T09:24:50;13.90;;;5.40;;
57311;SDS011;43154;50.966;18.316;2023-05-17T09:27:35;18.00;;;5.30;;
57311;SDS011;43154;50.966;18.316;2023-05-17T09:30:25;14.60;;;5.40;;
57311;SDS011;43154;50.966;18.316;2023-05-17T09:33:26;15.70;;;5.80;;
57311;SDS011;43154;50.966;18.316;2023-05-17T09:36:27;13.20;;;5.10;;
57311;SDS011;43154;50.966;18.316;2023-05-17T09:39:08;13.70;;;5.30;;
57311;SDS011;43154;50.966;18.316;2023-05-17T09:42:04;16.70;;;5.50;;
57311;SDS011;43154;50.966;18.316;2023-05-17T09:45:06;16.70;;;5.30;;
57311;SDS011;43154;50.966;18.316;2023-05-17T09:51:33;15.00;;;5.50;;
57311;SDS011;43154;50.966;18.316;2023-05-17T09:54:00;15.70;;;5.20;;
57311;SDS011;43154;50.966;18.316;2023-05-17T09:56:29;16.90;;;4.80;;
57311;SDS011;43154;50.966;18.316;2023-05-17T09:58:56;15.60;;;5.10;;
57311;SDS011;43154;50.966;18.316;2023-05-17T10:01:25;17.50;;;5.40;;
57311;SDS011;43154;50.966;18.316;2023-05-17T10:03:53;13.40;;;4.60;;
57311;SDS011;43154;50.966;18.316;2023-05-17T10:06:21;14.90;;;4.90;;
57311;SDS011;43154;50.966;18.316;2023-05-17T10:08:51;18.50;;;5.10;;
57311;SDS011;43154;50.966;18.316;2023-05-17T10:11:21;15.00;;;5.20;;
57311;SDS011;43154;50.966;18.316;2023-05-17T10:16:38;13.20;;;4.10;;
57311;SDS011;43154;50.966;18.316;2023-05-17T10:19:04;14.10;;;4.70;;
57311;SDS011;43154;50.966;18.316;2023-05-17T10:21:30;15.60;;;4.80;;
57311;SDS011;43154;50.966;18.316;2023-05-17T10:23:57;15.20;;;5.30;;
57311;SDS011;43154;50.966;18.316;2023-05-17T10:26:25;16.40;;;5.60;;
57311;SDS011;43154;50.966;18.316;2023-05-17T10:28:52;26.00;;;9.40;;
57311;SDS011;43154;50.966;18.316;2023-05-17T10:31:25;24.00;;;10.50;;
57311;SDS011;43154;50.966;18.316;2023-05-17T10:33:53;34.50;;;15.30;;
57311;SDS011;43154;50.966;18.316;2023-05-17T10:36:19;27.20;;;11.20;;
57311;SDS011;43154;50.966;18.316;2023-05-17T10:38:46;19.10;;;6.50;;
57311;SDS011;43154;50.966;18.316;2023-05-17T10:41:12;45.60;;;21.00;;
57311;SDS011;43154;50.966;18.316;2023-05-17T10:43:39;44.70;;;18.40;;
57311;SDS011;43154;50.966;18.316;2023-05-17T10:46:10;22.40;;;9.80;;
57311;SDS011;43154;50.966;18.316;2023-05-17T10:48:39;20.50;;;6.00;;
57311;SDS011;43154;50.966;18.316;2023-05-17T10:51:06;17.70;;;7.00;;
57311;SDS011;43154;50.966;18.316;2023-05-17T10:53:56;16.40;;;6.20;;
57311;SDS011;43154;50.966;18.316;2023-05-17T10:56:29;15.60;;;6.10;;
57311;SDS011;43154;50.966;18.316;2023-05-17T11:09:45;16.80;;;5.30;;
57311;SDS011;43154;50.966;18.316;2023-05-17T11:12:14;19.00;;;6.70;;
57311;SDS011;43154;50.966;18.316;2023-05-17T11:14:51;18.70;;;5.60;;
57311;SDS011;43154;50.966;18.316;2023-05-17T11:17:19;14.90;;;5.90;;
57311;SDS011;43154;50.966;18.316;2023-05-17T11:22:25;15.30;;;5.60;;
57311;SDS011;43154;50.966;18.316;2023-05-17T11:24:52;15.90;;;5.50;;
57311;SDS011;43154;50.966;18.316;2023-05-17T11:27:19;19.40;;;6.00;;
57311;SDS011;43154;50.966;18.316;2023-05-17T11:29:51;18.30;;;5.80;;
57311;SDS011;43154;50.966;18.316;2023-05-17T11:32:30;16.10;;;6.10;;
57311;SDS011;43154;50.966;18.316;2023-05-17T11:34:59;21.40;;;6.30;;
57311;SDS011;43154;50.966;18.316;2023-05-17T11:37:26;16.70;;;5.60;;
57311;SDS011;43154;50.966;18.316;2023-05-17T11:40:00;17.40;;;5.80;;
57311;SDS011;43154;50.966;18.316;2023-05-17T11:42:38;21.20;;;6.70;;
57311;SDS011;43154;50.966;18.316;2023-05-17T11:45:04;22.00;;;7.20;;
57311;SDS011;43154;50.966;18.316;2023-05-17T11:47:30;22.20;;;7.90;;
57311;SDS011;43154;50.966;18.316;2023-05-17T11:50:00;20.70;;;6.80;;
57311;SDS011;43154;50.966;18.316;2023-05-17T11:52:28;19.10;;;6.70;;
57311;SDS011;43154;50.966;18.316;2023-05-17T11:54:54;19.80;;;6.30;;
57311;SDS011;43154;50.966;18.316;2023-05-17T11:57:23;23.30;;;7.70;;
57311;SDS011;43154;50.966;18.316;2023-05-17T11:59:58;32.10;;;12.70;;
57311;SDS011;43154;50.966;18.316;2023-05-17T12:02:28;34.70;;;13.60;;
57311;SDS011;43154;50.966;18.316;2023-05-17T12:04:55;29.10;;;11.00;;
57311;SDS011;43154;50.966;18.316;2023-05-17T12:07:21;71.10;;;29.20;;
57311;SDS011;43154;50.966;18.316;2023-05-17T12:09:46;29.50;;;11.30;;
57311;SDS011;43154;50.966;18.316;2023-05-17T12:12:13;25.60;;;9.50;;
57311;SDS011;43154;50.966;18.316;2023-05-17T12:14:42;23.40;;;9.70;;
57311;SDS011;43154;50.966;18.316;2023-05-17T12:23:13;21.60;;;7.20;;
57311;SDS011;43154;50.966;18.316;2023-05-17T12:25:39;23.90;;;6.80;;
57311;SDS011;43154;50.966;18.316;2023-05-17T12:30:40;20.60;;;7.70;;
57311;SDS011;43154;50.966;18.316;2023-05-17T12:33:06;19.50;;;7.10;;
57311;SDS011;43154;50.966;18.316;2023-05-17T12:35:32;20.10;;;7.30;;
57311;SDS011;43154;50.966;18.316;2023-05-17T12:37:58;31.50;;;10.10;;
57311;SDS011;43154;50.966;18.316;2023-05-17T12:40:24;52.60;;;16.00;;
57311;SDS011;43154;50.966;18.316;2023-05-17T12:42:50;30.10;;;9.70;;
57311;SDS011;43154;50.966;18.316;2023-05-17T12:45:17;27.20;;;9.80;;
57311;SDS011;43154;50.966;18.316;2023-05-17T12:47:43;21.20;;;8.50;;
57311;SDS011;43154;50.966;18.316;2023-05-17T12:50:10;32.10;;;11.30;;
57311;SDS011;43154;50.966;18.316;2023-05-17T12:52:35;24.20;;;8.60;;
57311;SDS011;43154;50.966;18.316;2023-05-17T12:55:02;24.70;;;8.40;;
57311;SDS011;43154;50.966;18.316;2023-05-17T12:57:28;42.40;;;15.00;;
57311;SDS011;43154;50.966;18.316;2023-05-17T12:59:54;42.40;;;14.10;;
57311;SDS011;43154;50.966;18.316;2023-05-17T13:02:20;82.30;;;26.00;;
57311;SDS011;43154;50.966;18.316;2023-05-17T13:04:47;52.60;;;17.90;;
57311;SDS011;43154;50.966;18.316;2023-05-17T13:07:20;25.50;;;9.60;;
57311;SDS011;43154;50.966;18.316;2023-05-17T13:09:47;31.80;;;11.40;;
57311;SDS011;43154;50.966;18.316;2023-05-17T13:12:17;36.00;;;13.40;;
57311;SDS011;43154;50.966;18.316;2023-05-17T13:14:49;23.90;;;10.60;;
57311;SDS011;43154;50.966;18.316;2023-05-17T13:17:26;23.10;;;8.90;;
57311;SDS011;43154;50.966;18.316;2023-05-17T13:20:00;19.50;;;8.80;;
57311;SDS011;43154;50.966;18.316;2023-05-17T13:22:25;25.90;;;9.40;;
57311;SDS011;43154;50.966;18.316;2023-05-17T13:24:51;24.80;;;9.80;;
57311;SDS011;43154;50.966;18.316;2023-05-17T13:27:17;25.00;;;10.10;;
57311;SDS011;43154;50.966;18.316;2023-05-17T13:29:44;26.60;;;9.60;;
57311;SDS011;43154;50.966;18.316;2023-05-17T13:32:10;22.90;;;9.30;;
57311;SDS011;43154;50.966;18.316;2023-05-17T13:34:37;27.50;;;10.50;;
57311;SDS011;43154;50.966;18.316;2023-05-17T13:37:06;27.30;;;9.90;;
57311;SDS011;43154;50.966;18.316;2023-05-17T13:39:32;20.50;;;8.70;;
57311;SDS011;43154;50.966;18.316;2023-05-17T13:41:58;21.50;;;9.30;;
57311;SDS011;43154;50.966;18.316;2023-05-17T13:44:24;21.30;;;8.80;;
57311;SDS011;43154;50.966;18.316;2023-05-17T13:46:50;26.60;;;9.70;;
57311;SDS011;43154;50.966;18.316;2023-05-17T13:49:16;27.20;;;9.20;;
57311;SDS011;43154;50.966;18.316;2023-05-17T13:51:41;26.20;;;9.30;;
57311;SDS011;43154;50.966;18.316;2023-05-17T13:54:08;24.60;;;9.60;;
57311;SDS011;43154;50.966;18.316;2023-05-17T13:56:35;22.50;;;8.70;;
57311;SDS011;43154;50.966;18.316;2023-05-17T13:59:00;22.00;;;9.60;;
57311;SDS011;43154;50.966;18.316;2023-05-17T14:01:26;21.90;;;8.50;;
57311;SDS011;43154;50.966;18.316;2023-05-17T14:03:52;23.80;;;8.50;;
57311;SDS011;43154;50.966;18.316;2023-05-17T14:06:19;23.10;;;9.10;;
57311;SDS011;43154;50.966;18.316;2023-05-17T14:08:45;25.40;;;9.10;;
57311;SDS011;43154;50.966;18.316;2023-05-17T14:11:11;24.20;;;9.10;;
57311;SDS011;43154;50.966;18.316;2023-05-17T14:13:37;24.40;;;9.60;;
57311;SDS011;43154;50.966;18.316;2023-05-17T14:16:03;24.30;;;9.40;;
57311;SDS011;43154;50.966;18.316;2023-05-17T14:18:29;22.90;;;8.50;;
57311;SDS011;43154;50.966;18.316;2023-05-17T14:20:56;18.60;;;7.80;;
57311;SDS011;43154;50.966;18.316;2023-05-17T14:23:22;24.70;;;9.80;;
57311;SDS011;43154;50.966;18.316;2023-05-17T14:25:48;22.10;;;8.60;;
57311;SDS011;43154;50.966;18.316;2023-05-17T14:28:14;24.60;;;8.60;;
57311;SDS011;43154;50.966;18.316;2023-05-17T14:30:44;24.40;;;8.40;;
57311;SDS011;43154;50.966;18.316;2023-05-17T14:33:11;22.00;;;8.70;;
57311;SDS011;43154;50.966;18.316;2023-05-17T14:35:36;19.60;;;7.40;;
57311;SDS011;43154;50.966;18.316;2023-05-17T14:38:02;22.30;;;8.20;;
57311;SDS011;43154;50.966;18.316;2023-05-17T14:40:28;24.60;;;8.50;;
57311;SDS011;43154;50.966;18.316;2023-05-17T14:42:54;25.80;;;8.70;;
57311;SDS011;43154;50.966;18.316;2023-05-17T14:45:20;26.00;;;9.30;;
57311;SDS011;43154;50.966;18.316;2023-05-17T14:47:46;25.90;;;9.30;;
57311;SDS011;43154;50.966;18.316;2023-05-17T14:50:11;23.70;;;8.80;;
57311;SDS011;43154;50.966;18.316;2023-05-17T14:52:37;21.90;;;8.50;;
57311;SDS011;43154;50.966;18.316;2023-05-17T14:55:08;23.10;;;7.90;;
57311;SDS011;43154;50.966;18.316;2023-05-17T14:57:34;17.40;;;7.60;;
57311;SDS011;43154;50.966;18.316;2023-05-17T15:00:01;20.40;;;7.20;;
57311;SDS011;43154;50.966;18.316;2023-05-17T15:02:27;24.00;;;8.10;;
57311;SDS011;43154;50.966;18.316;2023-05-17T15:04:53;20.20;;;7.90;;
57311;SDS011;43154;50.966;18.316;2023-05-17T15:07:18;19.10;;;7.60;;
57311;SDS011;43154;50.966;18.316;2023-05-17T15:09:45;18.60;;;6.50;;
57311;SDS011;43154;50.966;18.316;2023-05-17T15:12:11;20.80;;;7.30;;
57311;SDS011;43154;50.966;18.316;2023-05-17T15:14:37;20.30;;;7.20;;
57311;SDS011;43154;50.966;18.316;2023-05-17T15:17:04;22.50;;;7.30;;
57311;SDS011;43154;50.966;18.316;2023-05-17T15:19:30;24.40;;;7.00;;
57311;SDS011;43154;50.966;18.316;2023-05-17T15:21:57;19.80;;;7.00;;
57311;SDS011;43154;50.966;18.316;2023-05-17T15:24:23;20.60;;;6.80;;
57311;SDS011;43154;50.966;18.316;2023-05-17T15:26:49;16.70;;;6.80;;
57311;SDS011;43154;50.966;18.316;2023-05-17T15:29:15;21.60;;;7.80;;
57311;SDS011;43154;50.966;18.316;2023-05-17T15:31:40;20.90;;;7.10;;
57311;SDS011;43154;50.966;18.316;2023-05-17T15:34:06;19.00;;;7.70;;
57311;SDS011;43154;50.966;18.316;2023-05-17T15:36:33;17.40;;;6.80;;
57311;SDS011;43154;50.966;18.316;2023-05-17T15:38:59;17.90;;;7.30;;
57311;SDS011;43154;50.966;18.316;2023-05-17T15:41:25;19.20;;;6.90;;
57311;SDS011;43154;50.966;18.316;2023-05-17T15:43:52;20.90;;;7.80;;
57311;SDS011;43154;50.966;18.316;2023-05-17T15:46:19;19.30;;;8.50;;
57311;SDS011;43154;50.966;18.316;2023-05-17T15:48:45;20.60;;;7.70;;
57311;SDS011;43154;50.966;18.316;2023-05-17T15:51:11;18.20;;;6.80;;
57311;SDS011;43154;50.966;18.316;2023-05-17T15:53:37;15.30;;;6.10;;
57311;SDS011;43154;50.966;18.316;2023-05-17T15:56:03;19.30;;;8.20;;